createdAt,value
2023-04-11T00:00:41.199Z,3.10
2023-04-11T00:03:09.647Z,2.90
2023-04-11T00:05:37.555Z,4.13
2023-04-11T00:08:06.926Z,4.37
2023-04-11T00:10:34.895Z,4.80
2023-04-11T00:13:02.784Z,4.43
2023-04-11T00:15:32.574Z,4.77
2023-04-11T00:18:00.524Z,5.17
2023-04-11T00:20:28.390Z,4.80
2023-04-11T00:22:58.311Z,4.60
2023-04-11T00:25:29.895Z,6.27
2023-04-11T00:27:58.224Z,5.57
2023-04-11T00:30:26.070Z,5.57
2023-04-11T00:32:54.104Z,5.33
2023-04-11T00:35:22.099Z,5.77
2023-04-11T00:37:55.943Z,5.20
2023-04-11T00:40:23.822Z,5.57
2023-04-11T00:42:53.031Z,5.20
2023-04-11T00:45:21.014Z,5.10
2023-04-11T00:47:49.596Z,5.20
2023-04-11T00:50:18.274Z,4.37
2023-04-11T00:52:49.252Z,5.23
2023-04-11T00:55:17.632Z,4.73
2023-04-11T00:57:46.330Z,5.23
2023-04-11T01:00:16.834Z,6.03
2023-04-11T01:02:45.359Z,5.23
2023-04-11T01:05:14.834Z,4.97
2023-04-11T01:07:46.137Z,5.73
2023-04-11T01:10:15.775Z,6.07
2023-04-11T01:12:44.882Z,5.93
2023-04-11T01:15:13.042Z,5.30
2023-04-11T01:17:42.646Z,5.20
2023-04-11T01:20:13.087Z,4.97
2023-04-11T01:22:43.648Z,4.57
2023-04-11T01:25:15.692Z,4.53
2023-04-11T01:27:44.923Z,4.30
2023-04-11T01:30:13.835Z,5.43
2023-04-11T01:32:41.807Z,4.30
2023-04-11T01:35:11.160Z,4.07
2023-04-11T01:37:39.360Z,4.47
2023-04-11T01:40:08.690Z,5.00
2023-04-11T01:42:39.248Z,4.97
2023-04-11T01:45:08.825Z,4.20
2023-04-11T01:47:37.538Z,4.53
2023-04-11T01:50:06.889Z,4.47
2023-04-11T01:52:34.825Z,4.43
2023-04-11T01:55:02.708Z,4.73
2023-04-11T01:57:30.888Z,4.47
2023-04-11T02:00:00.200Z,3.60
2023-04-11T02:02:28.133Z,5.33
2023-04-11T02:04:55.980Z,4.57
2023-04-11T02:07:24.529Z,4.20
2023-04-11T02:09:52.379Z,4.60
2023-04-11T02:12:20.239Z,4.83
2023-04-11T02:14:49.330Z,3.43
2023-04-11T02:17:18.854Z,3.33
2023-04-11T02:19:46.870Z,3.13
2023-04-11T02:22:15.861Z,3.23
2023-04-11T02:24:43.860Z,3.80
2023-04-11T02:27:12.610Z,2.77
2023-04-11T02:29:40.584Z,3.20
2023-04-11T02:32:08.649Z,2.97
2023-04-11T02:34:37.830Z,2.23
2023-04-11T02:37:05.633Z,2.63
2023-04-11T02:39:33.454Z,2.00
2023-04-11T02:42:01.397Z,1.70
2023-04-11T02:44:30.660Z,1.70
2023-04-11T02:46:59.376Z,1.70
2023-04-11T02:49:27.429Z,2.17
2023-04-11T02:51:56.586Z,2.10
2023-04-11T02:54:24.489Z,2.17
2023-04-11T02:56:52.673Z,1.63
2023-04-11T02:59:21.413Z,2.00
2023-04-11T03:01:49.692Z,1.37
2023-04-11T03:04:17.634Z,1.50
2023-04-11T03:06:45.534Z,1.93
2023-04-11T03:09:15.075Z,2.07
2023-04-11T03:11:43.033Z,1.80
2023-04-11T03:14:11.073Z,1.50
2023-04-11T03:16:38.900Z,2.00
2023-04-11T03:19:06.826Z,1.90
2023-04-11T03:21:34.657Z,2.90
2023-04-11T03:24:02.730Z,2.10
2023-04-11T03:26:32.314Z,2.03
2023-04-11T03:29:00.276Z,2.00
2023-04-11T03:31:28.934Z,2.50
2023-04-11T03:33:56.824Z,2.17
2023-04-11T03:36:26.533Z,2.10
2023-04-11T03:38:54.552Z,1.40
2023-04-11T03:41:22.643Z,1.90
2023-04-11T03:43:51.883Z,1.70
2023-04-11T03:46:19.738Z,2.57
2023-04-11T03:48:47.676Z,1.60
2023-04-11T03:51:15.817Z,1.60
2023-04-11T03:53:43.821Z,1.70
2023-04-11T03:56:12.475Z,2.17
2023-04-11T03:58:40.441Z,1.53
2023-04-11T04:01:09.701Z,2.33
2023-04-11T04:03:37.958Z,1.70
2023-04-11T04:06:06.568Z,2.17
2023-04-11T04:08:34.739Z,2.10
2023-04-11T04:11:02.580Z,1.47
2023-04-11T04:13:30.397Z,2.00
2023-04-11T04:15:58.327Z,1.97
2023-04-11T04:18:27.629Z,2.00
2023-04-11T04:20:55.512Z,2.00
2023-04-11T04:23:23.919Z,1.70
2023-04-11T04:25:51.844Z,1.73
2023-04-11T04:28:22.340Z,2.03
2023-04-11T04:30:54.134Z,2.10
2023-04-11T04:33:22.540Z,2.17
2023-04-11T04:35:52.464Z,1.87
2023-04-11T04:38:20.324Z,2.10
2023-04-11T04:40:50.471Z,1.83
2023-04-11T04:43:24.111Z,1.57
2023-04-11T04:45:52.011Z,2.27
2023-04-11T04:48:19.882Z,2.03
2023-04-11T04:50:47.730Z,1.63
2023-04-11T04:53:16.963Z,2.00
2023-04-11T04:55:45.050Z,1.87
2023-04-11T04:58:12.896Z,1.63
2023-04-11T05:00:41.146Z,1.83
2023-04-11T05:03:10.814Z,1.67
2023-04-11T05:05:38.680Z,1.53
2023-04-11T05:08:06.738Z,2.20
2023-04-11T05:10:35.913Z,1.53
2023-04-11T05:13:03.759Z,1.57
2023-04-11T05:15:31.622Z,1.93
2023-04-11T05:17:59.506Z,1.30
2023-04-11T05:20:29.632Z,1.93
2023-04-11T05:22:57.467Z,1.70
2023-04-11T05:25:25.956Z,1.77
2023-04-11T05:27:55.151Z,1.90
2023-04-11T05:30:23.304Z,1.57
2023-04-11T05:32:51.217Z,2.30
2023-04-11T05:35:19.084Z,2.40
2023-04-11T05:37:47.394Z,1.50
2023-04-11T05:40:16.151Z,2.10
2023-04-11T05:42:44.017Z,2.00
2023-04-11T05:45:14.172Z,1.70
2023-04-11T05:47:42.406Z,1.77
2023-04-11T05:50:13.057Z,1.90
2023-04-11T05:52:40.958Z,2.00
2023-04-11T05:55:09.863Z,1.27
2023-04-11T05:57:37.718Z,1.83
2023-04-11T06:00:12.826Z,2.17
2023-04-11T06:02:43.935Z,2.13
2023-04-11T06:05:12.673Z,1.70
2023-04-11T06:07:41.379Z,2.20
2023-04-11T06:10:10.890Z,1.60
2023-04-11T06:12:38.707Z,1.77
2023-04-11T06:15:09.411Z,1.70
2023-04-11T06:17:38.247Z,2.20
2023-04-11T06:20:08.843Z,1.53
2023-04-11T06:22:36.600Z,1.27
2023-04-11T06:25:05.073Z,1.73
2023-04-11T06:27:32.949Z,1.57
2023-04-11T06:30:00.926Z,1.87
2023-04-11T06:32:29.128Z,1.50
2023-04-11T06:34:57.010Z,1.90
2023-04-11T06:37:26.230Z,1.97
2023-04-11T06:39:54.027Z,1.70
2023-04-11T06:42:21.954Z,2.33
2023-04-11T06:44:50.844Z,1.73
2023-04-11T06:47:18.691Z,1.97
2023-04-11T06:49:46.622Z,1.93
2023-04-11T06:52:14.581Z,1.90
2023-04-11T06:54:43.830Z,2.40
2023-04-11T06:57:11.820Z,2.53
2023-04-11T06:59:39.801Z,2.13
2023-04-11T07:02:07.948Z,2.13
2023-04-11T07:04:36.055Z,3.07
2023-04-11T07:07:04.464Z,2.17
2023-04-11T07:09:32.885Z,2.40
2023-04-11T07:12:02.478Z,2.33
2023-04-11T07:14:30.338Z,2.43
2023-04-11T07:16:58.336Z,2.13
2023-04-11T07:19:26.225Z,2.20
2023-04-11T07:21:54.053Z,1.90
2023-04-11T07:24:22.462Z,3.03
2023-04-11T07:26:51.919Z,1.73
2023-04-11T07:29:21.456Z,2.07
2023-04-11T07:31:50.230Z,2.17
2023-04-11T07:34:18.210Z,1.97
2023-04-11T07:36:46.025Z,1.77
2023-04-11T07:39:14.836Z,1.60
2023-04-11T07:41:44.983Z,2.03
2023-04-11T07:44:12.975Z,1.80
2023-04-11T07:46:42.436Z,2.20
2023-04-11T07:49:10.782Z,2.43
2023-04-11T07:51:38.805Z,2.00
2023-04-11T07:54:07.316Z,2.27
2023-04-11T07:56:35.205Z,2.23
2023-04-11T07:59:03.311Z,2.17
2023-04-11T08:01:31.519Z,2.13
2023-04-11T08:04:01.791Z,2.22
2023-04-11T08:06:31.417Z,2.43
2023-04-11T08:09:00.791Z,2.30
2023-04-11T08:11:28.680Z,1.97
2023-04-11T08:13:56.735Z,1.88
2023-04-11T08:16:24.896Z,2.33
2023-04-11T08:18:52.781Z,1.70
2023-04-11T08:21:24.978Z,1.57
2023-04-11T08:23:52.832Z,1.83
2023-04-11T08:26:21.135Z,2.03
2023-04-11T08:28:49.190Z,1.83
2023-04-11T08:31:17.872Z,2.33
2023-04-11T08:33:45.961Z,2.23
2023-04-11T08:36:14.263Z,1.93
2023-04-11T08:38:43.848Z,3.03
2023-04-11T08:41:12.969Z,2.10
2023-04-11T08:43:41.224Z,2.27
2023-04-11T08:46:09.730Z,2.05
2023-04-11T08:48:37.540Z,1.77
2023-04-11T08:51:05.958Z,2.15
2023-04-11T08:53:38.498Z,2.25
2023-04-11T08:56:14.793Z,1.87
2023-04-11T08:58:43.680Z,1.87
2023-04-11T09:01:32.965Z,2.27
2023-04-11T09:04:02.458Z,1.90
2023-04-11T09:06:30.973Z,1.70
2023-04-11T09:08:59.648Z,1.20
2023-04-11T09:11:28.983Z,1.30
2023-04-11T09:14:11.108Z,1.55
2023-04-11T09:16:53.868Z,1.73
2023-04-11T09:19:24.963Z,1.70
2023-04-11T09:21:53.717Z,1.50
2023-04-11T09:24:22.745Z,1.15
2023-04-11T09:26:52.512Z,1.52
2023-04-11T09:29:37.486Z,1.17
2023-04-11T09:32:05.697Z,1.52
2023-04-11T09:34:37.882Z,1.85
2023-04-11T09:37:06.346Z,1.40
2023-04-11T09:39:34.144Z,1.77
2023-04-11T09:42:04.168Z,1.23
2023-04-11T09:44:39.300Z,1.67
2023-04-11T09:47:07.269Z,1.20
2023-04-11T09:49:36.398Z,0.95
2023-04-11T09:52:04.806Z,1.20
2023-04-11T09:54:33.667Z,1.10
2023-04-11T09:57:03.951Z,1.20
2023-04-11T09:59:33.605Z,1.67
2023-04-11T10:02:01.611Z,1.23
2023-04-11T10:04:29.963Z,1.25
2023-04-11T10:07:06.618Z,1.10
2023-04-11T10:09:34.521Z,1.40
2023-04-11T10:12:03.993Z,1.77
2023-04-11T10:14:43.537Z,1.30
2023-04-11T10:17:18.916Z,1.20
2023-04-11T10:19:50.571Z,1.38
2023-04-11T10:22:55.669Z,1.20
2023-04-11T10:25:24.695Z,1.40
2023-04-11T10:27:57.089Z,1.10
2023-04-11T10:30:54.715Z,1.40
2023-04-11T10:33:23.518Z,1.50
2023-04-11T10:35:58.814Z,1.13
2023-04-11T10:38:47.286Z,1.42
2023-04-11T10:41:17.179Z,1.20
2023-04-11T10:43:46.960Z,1.35
2023-04-11T10:46:22.234Z,1.50
2023-04-11T10:49:00.678Z,1.50
2023-04-11T10:51:29.435Z,1.27
2023-04-11T10:53:59.870Z,1.10
2023-04-11T10:56:55.207Z,1.30
2023-04-11T11:00:00.483Z,1.20
2023-04-11T11:02:41.631Z,1.40
2023-04-11T11:05:21.121Z,1.90
2023-04-11T11:07:51.942Z,1.33
2023-04-11T11:10:42.986Z,1.50
2023-04-11T11:13:12.026Z,1.13
2023-04-11T11:15:40.114Z,1.02
2023-04-11T11:18:16.146Z,1.23
2023-04-11T11:20:44.423Z,1.80
2023-04-11T11:23:12.975Z,1.70
2023-04-11T11:25:41.198Z,1.20
2023-04-11T11:28:10.907Z,1.15
2023-04-11T11:30:39.786Z,1.98
2023-04-11T11:33:19.889Z,1.73
2023-04-11T11:35:53.994Z,2.10
2023-04-11T11:38:23.090Z,1.95
2023-04-11T13:43:13.539Z,1.50
2023-04-11T13:45:41.655Z,1.58
2023-04-11T13:48:09.921Z,1.85
2023-04-11T13:50:39.301Z,1.70
2023-04-11T13:53:07.130Z,1.52
2023-04-11T13:55:34.956Z,1.60
2023-04-11T13:58:02.803Z,1.38
2023-04-11T14:00:31.925Z,1.30
2023-04-11T14:02:59.865Z,1.40
2023-04-11T14:05:27.711Z,1.55
2023-04-11T14:07:55.691Z,1.33
2023-04-11T14:10:23.562Z,1.20
2023-04-11T14:12:51.612Z,1.52
2023-04-11T14:15:20.550Z,1.50
2023-04-11T14:17:51.358Z,1.48
2023-04-11T14:20:19.273Z,1.27
2023-04-11T14:22:47.698Z,2.00
2023-04-11T14:25:15.909Z,1.90
2023-04-11T14:27:44.305Z,1.48
2023-04-11T14:30:13.720Z,1.52
2023-04-11T14:32:42.413Z,1.17
2023-04-11T14:35:12.282Z,1.77
2023-04-11T14:37:40.335Z,1.33
2023-04-11T14:40:11.213Z,1.50
2023-04-11T14:42:39.588Z,1.75
2023-04-11T14:45:08.635Z,1.60
2023-04-11T14:47:36.820Z,1.48
2023-04-11T14:50:05.070Z,1.55
2023-04-11T14:52:34.283Z,1.42
2023-04-11T14:55:02.144Z,1.63
2023-04-11T14:57:45.595Z,1.45
2023-04-11T15:00:18.942Z,1.33
2023-04-11T15:02:47.921Z,1.40
2023-04-11T15:05:17.847Z,1.30
2023-04-11T15:07:48.993Z,1.25
2023-04-11T15:10:23.349Z,1.60
2023-04-11T15:12:51.566Z,1.35
2023-04-11T15:15:19.320Z,1.35
2023-04-11T15:17:48.931Z,1.00
2023-04-11T15:20:19.428Z,1.08
2023-04-11T15:22:49.744Z,1.20
2023-04-11T15:25:17.643Z,2.20
2023-04-11T15:27:45.490Z,1.35
2023-04-11T15:30:13.605Z,1.13
2023-04-11T15:32:44.050Z,1.10
2023-04-11T15:35:12.363Z,1.27
2023-04-11T15:37:40.976Z,1.40
2023-04-11T15:40:15.181Z,1.38
2023-04-11T15:42:43.279Z,1.30
2023-04-11T15:45:13.085Z,1.02
2023-04-11T15:47:41.070Z,1.40
2023-04-11T15:50:10.095Z,1.20
2023-04-11T15:52:37.886Z,1.30
2023-04-11T15:55:06.844Z,1.00
2023-04-11T15:57:36.067Z,1.08
2023-04-11T16:00:08.642Z,1.45
2023-04-11T16:02:36.897Z,1.08
2023-04-11T16:05:05.607Z,1.38
2023-04-11T16:07:33.648Z,0.90
2023-04-11T16:10:01.418Z,1.70
2023-04-11T16:12:29.426Z,1.52
2023-04-11T16:14:59.068Z,1.20
2023-04-11T16:17:26.952Z,1.55
2023-04-11T16:19:54.882Z,1.45
2023-04-11T16:22:22.860Z,1.67
2023-04-11T16:24:51.565Z,1.23
2023-04-11T16:27:19.847Z,1.50
2023-04-11T16:29:48.016Z,1.77
2023-04-11T16:32:18.152Z,1.67
2023-04-11T16:34:46.175Z,1.20
2023-04-11T16:37:14.396Z,1.35
2023-04-11T16:39:42.510Z,1.48
2023-04-11T16:42:11.068Z,1.17
2023-04-11T16:44:38.898Z,1.52
2023-04-11T16:47:06.788Z,1.52
2023-04-11T16:49:36.405Z,1.67
2023-04-11T16:52:04.428Z,1.33
2023-04-11T16:54:32.545Z,1.50
2023-04-11T16:57:01.519Z,1.45
2023-04-11T16:59:30.365Z,1.65
2023-04-11T17:01:58.348Z,1.85
2023-04-11T17:04:27.121Z,1.30
2023-04-11T17:06:57.377Z,1.63
2023-04-11T17:09:25.274Z,1.35
2023-04-11T17:11:53.206Z,1.40
2023-04-11T17:14:21.106Z,1.55
2023-04-11T17:16:49.105Z,1.33
2023-04-11T17:19:17.092Z,1.60
2023-04-11T17:21:44.970Z,1.20
2023-04-11T17:24:14.393Z,1.70
2023-04-11T17:26:42.377Z,1.85
2023-04-11T17:29:10.978Z,1.52
2023-04-11T17:31:39.139Z,1.40
2023-04-11T17:34:07.120Z,1.30
2023-04-11T17:36:42.343Z,1.50
2023-04-11T17:39:11.189Z,1.38
2023-04-11T17:41:40.533Z,1.55
2023-04-11T17:44:08.462Z,1.30
2023-04-11T17:46:36.664Z,1.27
2023-04-11T17:49:04.630Z,1.48
2023-04-11T17:51:32.440Z,2.05
2023-04-11T17:54:00.618Z,1.60
2023-04-11T17:56:28.494Z,1.73
2023-04-11T17:58:57.655Z,3.28
2023-04-11T18:01:31.900Z,5.95
2023-04-11T18:04:01.343Z,4.40
2023-04-11T18:06:29.909Z,3.65
2023-04-11T18:08:57.724Z,3.15
2023-04-11T18:11:25.613Z,2.00
2023-04-11T18:13:53.544Z,1.92
2023-04-11T18:16:22.777Z,1.52
2023-04-11T18:18:50.803Z,2.55
2023-04-11T18:21:18.652Z,1.60
2023-04-11T18:23:46.538Z,1.63
2023-04-11T18:26:14.527Z,1.75
2023-04-11T18:28:42.574Z,1.65
2023-04-11T18:31:10.990Z,2.08
2023-04-11T18:33:44.073Z,1.40
2023-04-11T18:36:13.529Z,1.75
2023-04-11T18:38:41.490Z,1.60
2023-04-11T18:41:09.900Z,1.90
2023-04-11T18:43:38.756Z,1.48
2023-04-11T18:46:07.676Z,1.88
2023-04-11T18:48:35.604Z,1.33
2023-04-11T18:51:05.766Z,2.00
2023-04-11T18:53:34.789Z,1.55
2023-04-11T18:56:03.497Z,1.67
2023-04-11T18:58:33.588Z,1.65
2023-04-11T19:01:13.998Z,1.63
2023-04-11T19:03:43.934Z,1.50
2023-04-11T19:06:14.337Z,1.80
2023-04-11T19:08:42.270Z,1.83
2023-04-11T19:11:10.807Z,1.98
2023-04-11T19:13:38.846Z,2.25
2023-04-11T19:16:07.344Z,1.55
2023-04-11T19:18:35.894Z,1.88
2023-04-11T19:21:03.841Z,2.20
2023-04-11T19:23:33.267Z,1.67
2023-04-11T19:26:02.213Z,2.10
2023-04-11T19:28:30.157Z,1.95
2023-04-11T19:30:57.967Z,1.67
2023-04-11T19:33:26.163Z,1.60
2023-04-11T19:35:54.277Z,1.92
2023-04-11T19:38:22.359Z,1.58
2023-04-11T19:40:51.552Z,2.33
2023-04-11T19:43:19.727Z,1.90
2023-04-11T19:45:47.832Z,1.77
2023-04-11T19:48:16.194Z,2.13
2023-04-11T19:50:44.610Z,2.67
2023-04-11T19:53:12.544Z,1.83
2023-04-11T19:55:41.196Z,2.10
2023-04-11T19:58:11.156Z,1.73
2023-04-11T20:00:38.971Z,2.40
2023-04-11T20:03:08.038Z,2.20
2023-04-11T20:05:36.252Z,1.80
2023-04-11T20:08:04.229Z,2.03
2023-04-11T20:10:32.129Z,2.25
2023-04-11T20:12:59.956Z,2.80
2023-04-11T20:15:29.638Z,2.05
2023-04-11T20:17:57.580Z,1.70
2023-04-11T20:20:27.754Z,1.88
2023-04-11T20:22:55.668Z,1.55
2023-04-11T20:25:23.870Z,1.55
2023-04-11T20:27:51.892Z,1.55
2023-04-11T20:30:19.799Z,1.63
2023-04-11T20:32:48.976Z,1.52
2023-04-11T20:35:16.879Z,1.80
2023-04-11T20:37:44.991Z,1.73
2023-04-11T20:40:14.371Z,1.48
2023-04-11T20:42:42.922Z,1.80
2023-04-11T20:45:12.700Z,1.80
2023-04-11T20:47:41.384Z,1.55
2023-04-11T20:50:14.256Z,1.58
2023-04-11T20:52:43.752Z,1.70
2023-04-11T20:55:13.644Z,1.98
2023-04-11T20:57:41.656Z,1.60
2023-04-11T21:00:14.678Z,1.70
2023-04-11T21:02:44.366Z,1.30
2023-04-11T21:05:14.728Z,1.60
2023-04-11T21:07:43.574Z,2.03
2023-04-11T21:10:12.985Z,1.52
2023-04-11T21:12:41.972Z,1.90
2023-04-11T21:15:11.741Z,1.90
2023-04-11T21:17:40.469Z,2.35
2023-04-11T21:20:11.054Z,1.87
2023-04-11T21:22:40.575Z,1.58
2023-04-11T21:25:09.792Z,1.90
2023-04-11T21:27:37.670Z,1.60
2023-04-11T21:30:07.720Z,2.05
2023-04-11T21:32:35.692Z,1.80
2023-04-11T21:35:04.953Z,1.70
2023-04-11T21:37:32.817Z,2.03
2023-04-11T21:40:02.234Z,1.88
2023-04-11T21:42:30.308Z,1.95
2023-04-11T21:44:58.375Z,1.40
2023-04-11T21:47:26.383Z,1.88
2023-04-11T21:49:54.379Z,1.97
2023-04-11T21:52:22.534Z,1.60
2023-04-11T21:54:50.981Z,1.63
2023-04-11T21:57:20.643Z,1.65
2023-04-11T21:59:49.549Z,1.90
2023-04-11T22:02:17.574Z,1.73
2023-04-11T22:05:03.877Z,1.85
2023-04-11T22:07:39.028Z,1.90
2023-04-11T22:10:12.049Z,1.85
2023-04-11T22:12:41.992Z,1.92
2023-04-11T22:15:13.005Z,1.67
2023-04-11T22:17:44.139Z,2.10
2023-04-11T22:20:13.259Z,2.28
2023-04-11T22:22:42.054Z,2.00
2023-04-11T22:25:11.506Z,1.48
2023-04-11T22:27:40.836Z,1.85
2023-04-11T22:30:09.720Z,1.60
2023-04-11T22:32:38.095Z,1.40
2023-04-11T22:35:08.268Z,1.63
2023-04-11T22:37:36.131Z,2.57
2023-04-11T22:40:06.174Z,1.50
2023-04-11T22:42:33.968Z,1.53
2023-04-11T22:45:03.293Z,2.00
2023-04-11T22:47:32.539Z,2.03
2023-04-11T22:50:00.459Z,2.03
2023-04-11T22:52:30.112Z,2.38
2023-04-11T22:54:57.979Z,1.53
2023-04-11T22:57:25.984Z,2.20
2023-04-11T22:59:53.826Z,2.05
2023-04-11T23:02:24.547Z,2.07
2023-04-11T23:04:52.544Z,1.63
2023-04-11T23:07:20.613Z,1.77
2023-04-11T23:09:48.950Z,1.77
2023-04-11T23:12:16.990Z,1.83
2023-04-11T23:14:46.566Z,2.10
2023-04-11T23:17:15.662Z,1.67
2023-04-11T23:19:45.250Z,1.90
2023-04-11T23:22:13.652Z,1.87
2023-04-11T23:24:41.486Z,1.73
2023-04-11T23:27:09.959Z,1.90
2023-04-11T23:29:37.896Z,1.60
2023-04-11T23:32:06.712Z,1.90
2023-04-11T23:34:34.923Z,1.30
2023-04-11T23:37:04.104Z,1.77
2023-04-11T23:39:31.940Z,2.85
2023-04-11T23:41:59.796Z,1.77
2023-04-11T23:44:27.755Z,2.07
2023-04-11T23:46:55.792Z,1.70
2023-04-11T23:49:23.629Z,2.33
2023-04-11T23:51:51.685Z,1.70
2023-04-11T23:54:20.918Z,2.10
2023-04-11T23:56:48.962Z,1.80
2023-04-11T23:59:17.603Z,1.93
